createdAt,value
2017-09-18T00:00:40.069Z,72.10
2017-09-18T00:03:08.203Z,71.80
2017-09-18T00:05:36.397Z,72.30
2017-09-18T00:08:04.552Z,72.20
2017-09-18T00:10:32.710Z,72.10
2017-09-18T00:13:00.910Z,72.30
2017-09-18T00:15:29.073Z,72.00
2017-09-18T00:17:58.000Z,72.40
2017-09-18T00:20:26.960Z,72.50
2017-09-18T00:22:55.329Z,72.50
2017-09-18T00:25:23.513Z,73.30
2017-09-18T00:27:51.693Z,73.40
2017-09-18T00:30:20.605Z,74.10
2017-09-18T00:32:49.534Z,74.20
2017-09-18T00:35:17.696Z,74.10
2017-09-18T00:37:46.647Z,74.20
2017-09-18T00:40:14.807Z,74.20
2017-09-18T00:42:42.988Z,74.70
2017-09-18T00:45:11.165Z,74.90
2017-09-18T00:47:40.653Z,74.90
2017-09-18T00:50:08.852Z,74.90
2017-09-18T00:52:36.988Z,74.50
2017-09-18T00:55:06.080Z,74.80
2017-09-18T00:57:34.249Z,74.70
2017-09-18T01:00:02.448Z,75.90
2017-09-18T01:02:30.612Z,75.20
2017-09-18T01:04:58.773Z,74.50
2017-09-18T01:07:27.509Z,73.90
2017-09-18T01:09:55.678Z,73.60
2017-09-18T01:12:23.823Z,73.60
2017-09-18T01:14:51.989Z,73.40
2017-09-18T01:17:20.129Z,73.70
2017-09-18T01:19:49.993Z,73.00
2017-09-18T01:22:18.146Z,73.00
2017-09-18T01:24:46.299Z,72.70
2017-09-18T01:27:14.462Z,73.00
2017-09-18T01:29:43.702Z,72.90
2017-09-18T01:32:11.877Z,72.80
2017-09-18T01:34:40.064Z,73.10
2017-09-18T01:37:08.222Z,72.90
2017-09-18T01:39:36.402Z,73.20
2017-09-18T01:42:04.540Z,73.40
2017-09-18T01:44:32.748Z,73.40
2017-09-18T01:47:00.902Z,73.50
2017-09-18T01:49:29.627Z,73.40
2017-09-18T01:51:57.777Z,73.80
2017-09-18T01:54:25.948Z,73.70
2017-09-18T01:56:54.094Z,73.70
2017-09-18T01:59:22.265Z,74.10
2017-09-18T02:01:50.455Z,74.20
2017-09-18T02:04:18.621Z,74.40
2017-09-18T02:06:47.549Z,74.50
2017-09-18T02:09:15.689Z,74.40
2017-09-18T02:11:43.855Z,74.30
2017-09-18T02:14:12.032Z,74.50
2017-09-18T02:16:40.188Z,74.90
2017-09-18T02:19:09.109Z,75.00
2017-09-18T02:21:37.269Z,75.00
2017-09-18T02:24:06.198Z,75.80
2017-09-18T02:26:34.359Z,75.80
2017-09-18T02:29:02.516Z,75.60
2017-09-18T02:31:30.682Z,75.50
2017-09-18T02:33:58.831Z,75.20
2017-09-18T02:36:27.756Z,75.20
2017-09-18T02:38:56.706Z,75.40
2017-09-18T02:41:24.851Z,75.40
2017-09-18T02:43:52.992Z,75.60
2017-09-18T02:46:21.159Z,75.40
2017-09-18T02:48:49.320Z,75.70
2017-09-18T02:51:17.481Z,76.10
2017-09-18T02:53:46.435Z,76.00
2017-09-18T02:56:15.355Z,76.20
2017-09-18T02:58:44.270Z,76.20
2017-09-18T03:01:12.433Z,76.20
2017-09-18T03:03:41.357Z,76.60
2017-09-18T03:06:09.531Z,76.60
2017-09-18T03:08:38.465Z,76.30
2017-09-18T03:11:06.630Z,76.30
2017-09-18T03:13:37.230Z,76.50
2017-09-18T03:16:05.412Z,76.40
2017-09-18T03:18:34.305Z,76.20
2017-09-18T03:21:02.480Z,76.20
2017-09-18T03:23:30.604Z,75.90
2017-09-18T03:25:58.773Z,76.90
2017-09-18T03:28:27.679Z,76.90
2017-09-18T03:30:55.896Z,76.90
2017-09-18T03:33:24.024Z,76.50
2017-09-18T03:35:52.201Z,77.20
2017-09-18T03:38:20.357Z,77.40
2017-09-18T03:40:49.269Z,77.50
2017-09-18T03:43:17.704Z,77.50
2017-09-18T03:45:45.849Z,77.60
2017-09-18T03:48:14.019Z,76.30
2017-09-18T03:50:42.161Z,76.40
2017-09-18T03:53:10.325Z,76.30
2017-09-18T03:55:38.470Z,76.60
2017-09-18T03:58:06.641Z,76.70
2017-09-18T04:00:34.799Z,77.10
2017-09-18T04:03:02.950Z,77.10
2017-09-18T04:05:31.097Z,76.50
2017-09-18T04:08:00.030Z,77.30
2017-09-18T04:10:28.996Z,77.20
2017-09-18T04:12:57.147Z,77.10
2017-09-18T04:15:26.075Z,76.50
2017-09-18T04:17:54.246Z,76.50
2017-09-18T04:20:22.427Z,76.70
2017-09-18T04:22:50.576Z,76.70
2017-09-18T04:25:18.759Z,76.20
2017-09-18T04:27:46.915Z,77.60
2017-09-18T04:30:15.068Z,77.60
2017-09-18T04:32:44.018Z,77.40
2017-09-18T04:35:12.189Z,77.30
2017-09-18T04:37:40.356Z,76.70
2017-09-18T04:40:09.625Z,76.10
2017-09-18T04:42:38.549Z,75.50
2017-09-18T04:45:07.486Z,75.90
2017-09-18T04:47:36.450Z,75.60
2017-09-18T04:50:04.639Z,75.60
2017-09-18T04:52:32.810Z,75.50
2017-09-18T04:55:00.990Z,75.50
2017-09-18T04:57:29.154Z,75.50
2017-09-18T04:59:57.327Z,75.80
2017-09-18T05:02:25.489Z,76.50
2017-09-18T05:04:53.654Z,76.90
2017-09-18T05:07:21.801Z,76.40
2017-09-18T05:09:49.983Z,76.10
2017-09-18T05:12:18.143Z,76.40
2017-09-18T05:14:46.289Z,76.20
2017-09-18T05:17:15.229Z,76.70
2017-09-18T05:19:43.389Z,76.70
2017-09-18T05:22:12.329Z,77.30
2017-09-18T05:24:40.471Z,77.20
2017-09-18T05:27:08.644Z,76.90
2017-09-18T05:29:36.793Z,76.90
2017-09-18T05:32:04.947Z,76.70
2017-09-18T05:34:33.877Z,76.60
2017-09-18T05:37:02.051Z,76.50
2017-09-18T05:39:30.206Z,76.60
2017-09-18T05:41:58.366Z,76.40
2017-09-18T05:44:27.777Z,76.50
2017-09-18T05:46:56.677Z,76.10
2017-09-18T05:49:24.838Z,76.10
2017-09-18T05:51:53.785Z,76.20
2017-09-18T05:54:21.938Z,76.10
2017-09-18T05:56:50.125Z,76.40
2017-09-18T05:59:18.298Z,76.50
2017-09-18T06:01:46.466Z,76.70
2017-09-18T06:04:14.633Z,76.70
2017-09-18T06:06:42.783Z,76.60
2017-09-18T06:09:11.711Z,76.70
2017-09-18T06:11:40.700Z,76.40
2017-09-18T06:14:08.959Z,76.40
2017-09-18T06:16:37.099Z,76.30
2017-09-18T06:19:06.032Z,76.30
2017-09-18T06:21:34.191Z,76.30
2017-09-18T06:24:02.353Z,76.50
2017-09-18T06:26:30.506Z,76.50
2017-09-18T06:28:59.429Z,77.30
2017-09-18T06:31:28.211Z,77.30
2017-09-18T06:33:56.363Z,77.70
2017-09-18T06:36:25.298Z,77.10
2017-09-18T06:38:53.458Z,77.00
2017-09-18T06:41:21.645Z,77.10
2017-09-18T06:43:49.785Z,77.80
2017-09-18T06:46:19.693Z,77.70
2017-09-18T06:48:48.613Z,77.00
2017-09-18T06:51:16.781Z,76.90
2017-09-18T06:53:45.703Z,76.80
2017-09-18T06:56:13.858Z,76.70
2017-09-18T06:58:42.033Z,77.50
2017-09-18T07:01:10.204Z,78.00
2017-09-18T07:03:38.361Z,78.10
2017-09-18T07:06:06.511Z,77.40
2017-09-18T07:08:35.443Z,78.30
2017-09-18T07:11:03.577Z,77.70
2017-09-18T07:13:32.496Z,76.90
2017-09-18T07:16:00.676Z,76.90
2017-09-18T07:18:28.839Z,76.60
2017-09-18T07:20:57.005Z,76.80
2017-09-18T07:23:25.951Z,77.50
2017-09-18T07:25:54.117Z,77.40
2017-09-18T07:28:22.287Z,76.90
2017-09-18T07:30:50.508Z,76.70
2017-09-18T07:33:19.505Z,76.50
2017-09-18T07:35:49.377Z,76.00
2017-09-18T07:38:17.570Z,76.00
2017-09-18T07:40:45.709Z,75.90
2017-09-18T07:43:13.906Z,76.00
2017-09-18T07:45:42.086Z,75.70
2017-09-18T07:48:10.253Z,76.10
2017-09-18T07:50:38.417Z,75.50
2017-09-18T07:53:07.545Z,75.20
2017-09-18T07:55:37.389Z,75.20
2017-09-18T07:58:05.533Z,75.10
2017-09-18T08:00:34.470Z,74.80
2017-09-18T08:03:02.611Z,74.80
2017-09-18T08:05:30.777Z,74.00
2017-09-18T08:07:59.697Z,73.40
2017-09-18T08:10:27.850Z,73.30
2017-09-18T08:12:56.021Z,73.00
2017-09-18T08:15:24.170Z,73.50
2017-09-18T08:17:53.144Z,73.40
2017-09-18T08:20:21.293Z,73.40
2017-09-18T08:22:49.482Z,72.90
2017-09-18T08:25:17.636Z,72.50
2017-09-18T08:27:45.853Z,72.30
2017-09-18T08:30:14.011Z,72.80
2017-09-18T08:32:42.166Z,73.50
2017-09-18T08:35:11.103Z,72.30
2017-09-18T08:37:39.257Z,72.30
2017-09-18T08:40:08.034Z,71.70
2017-09-18T08:42:36.189Z,71.70
2017-09-18T08:45:04.357Z,71.80
2017-09-18T08:47:32.516Z,71.50
2017-09-18T08:50:00.671Z,72.20
2017-09-18T08:52:29.589Z,72.50
2017-09-18T08:54:57.752Z,72.40
2017-09-18T08:57:25.924Z,72.20
2017-09-18T08:59:54.089Z,71.40
2017-09-18T09:02:22.994Z,71.20
2017-09-18T09:04:51.170Z,71.20
2017-09-18T09:07:20.232Z,71.30
2017-09-18T09:09:49.197Z,71.00
2017-09-18T09:12:18.285Z,71.00
2017-09-18T09:14:46.453Z,71.30
2017-09-18T09:17:14.602Z,71.50
2017-09-18T09:19:42.772Z,72.00
2017-09-18T09:22:10.925Z,72.50
2017-09-18T09:24:39.837Z,72.00
2017-09-18T09:27:08.018Z,72.00
2017-09-18T09:29:36.177Z,71.50
2017-09-18T09:32:06.058Z,71.50
2017-09-18T09:34:34.206Z,71.40
2017-09-18T09:37:02.385Z,71.30
2017-09-18T09:39:31.301Z,69.60
2017-09-18T09:41:59.489Z,69.60
2017-09-18T09:44:27.662Z,69.30
2017-09-18T09:46:56.576Z,69.10
2017-09-18T09:49:24.756Z,69.10
2017-09-18T09:51:52.932Z,69.60
2017-09-18T09:54:21.822Z,69.20
2017-09-18T09:56:49.986Z,69.60
2017-09-18T09:59:18.169Z,68.90
2017-09-18T10:01:47.093Z,68.70
2017-09-18T10:04:15.265Z,68.70
2017-09-18T10:06:43.408Z,69.10
2017-09-18T10:09:11.590Z,68.70
2017-09-18T10:11:39.733Z,69.10
2017-09-18T10:14:07.912Z,70.50
2017-09-18T10:16:36.858Z,68.80
2017-09-18T10:19:05.050Z,68.80
2017-09-18T10:21:33.230Z,68.00
2017-09-18T10:24:01.396Z,68.20
2017-09-18T10:26:29.557Z,68.30
2017-09-18T10:28:57.710Z,68.00
2017-09-18T10:31:25.889Z,67.40
2017-09-18T10:33:54.033Z,68.30
2017-09-18T10:36:22.183Z,68.40
2017-09-18T10:38:51.941Z,69.20
2017-09-18T10:41:20.075Z,69.20
2017-09-18T10:43:49.662Z,69.50
2017-09-18T10:46:18.606Z,68.60
2017-09-18T10:48:46.773Z,68.60
2017-09-18T10:51:14.927Z,68.50
2017-09-18T10:53:43.085Z,67.80
2017-09-18T10:56:12.016Z,68.50
2017-09-18T10:58:40.969Z,67.90
2017-09-18T11:01:09.907Z,68.00
2017-09-18T11:03:38.073Z,68.00
2017-09-18T11:06:06.243Z,68.00
2017-09-18T11:08:34.408Z,68.80
2017-09-18T11:11:02.569Z,69.60
2017-09-18T11:13:30.737Z,68.50
2017-09-18T11:15:59.649Z,68.80
2017-09-18T11:18:28.620Z,68.50
2017-09-18T11:20:57.556Z,67.00
2017-09-18T11:23:25.737Z,67.00
2017-09-18T11:25:53.914Z,67.10
2017-09-18T11:28:22.853Z,67.80
2017-09-18T11:30:51.807Z,67.80
2017-09-18T11:33:19.992Z,67.70
2017-09-18T11:35:48.183Z,67.90
2017-09-18T11:38:17.819Z,67.80
2017-09-18T11:40:45.951Z,67.70
2017-09-18T11:43:14.120Z,69.00
2017-09-18T11:45:42.267Z,68.60
2017-09-18T11:48:10.446Z,67.80
2017-09-18T11:50:38.637Z,67.30
2017-09-18T11:53:06.805Z,66.70
2017-09-18T11:55:34.976Z,67.40
2017-09-18T11:58:03.160Z,66.40
2017-09-18T12:00:31.308Z,67.10
2017-09-18T12:02:59.472Z,67.30
2017-09-18T12:05:27.632Z,67.10
2017-09-18T12:07:57.310Z,66.90
2017-09-18T12:10:25.464Z,66.90
2017-09-18T12:12:53.660Z,67.70
2017-09-18T12:15:21.843Z,67.80
2017-09-18T12:17:50.780Z,68.30
2017-09-18T12:20:19.682Z,68.30
2017-09-18T12:22:47.852Z,69.00
2017-09-18T12:25:16.077Z,68.60
2017-09-18T12:27:44.249Z,67.60
2017-09-18T12:30:13.204Z,65.50
2017-09-18T12:32:41.377Z,65.40
2017-09-18T12:35:09.600Z,65.10
2017-09-18T12:37:38.537Z,63.90
2017-09-18T12:40:07.910Z,63.80
2017-09-18T12:42:36.829Z,64.30
2017-09-18T12:45:04.978Z,65.10
2017-09-18T12:47:33.160Z,65.50
2017-09-18T12:50:02.232Z,66.00
2017-09-18T12:52:30.401Z,64.80
2017-09-18T12:54:58.677Z,63.50
2017-09-18T12:57:26.840Z,62.20
2017-09-18T12:59:55.034Z,61.80
2017-09-18T13:02:23.177Z,61.60
2017-09-18T13:04:52.123Z,62.20
2017-09-18T13:07:20.266Z,62.20
2017-09-18T13:09:48.444Z,62.20
2017-09-18T13:12:16.601Z,63.40
2017-09-18T13:14:45.545Z,60.90
2017-09-18T13:17:14.526Z,60.80
2017-09-18T13:19:43.549Z,58.80
2017-09-18T13:22:11.702Z,58.50
2017-09-18T13:24:39.851Z,59.40
2017-09-18T13:27:08.039Z,56.90
2017-09-18T13:29:36.194Z,54.60
2017-09-18T13:32:04.368Z,53.00
2017-09-18T13:34:32.538Z,52.60
2017-09-18T13:37:00.723Z,50.60
2017-09-18T13:39:28.908Z,47.60
2017-09-18T13:41:57.078Z,45.00
2017-09-18T13:44:25.243Z,44.30
2017-09-18T13:46:53.429Z,44.00
2017-09-18T13:49:21.645Z,41.10
2017-09-18T13:51:49.833Z,40.70
2017-09-18T13:54:17.984Z,36.90
2017-09-18T13:56:46.915Z,39.30
2017-09-18T13:59:16.023Z,39.30
2017-09-18T14:01:44.169Z,40.50
2017-09-18T14:04:12.369Z,43.10
2017-09-18T14:06:40.530Z,45.40
2017-09-18T14:09:08.726Z,46.80
2017-09-18T14:11:36.904Z,48.50
2017-09-18T14:14:05.073Z,50.30
2017-09-18T14:16:33.235Z,52.00
2017-09-18T14:19:02.335Z,53.70
2017-09-18T14:21:30.485Z,55.70
2017-09-18T14:23:58.652Z,57.00
2017-09-18T14:26:27.522Z,57.50
2017-09-18T14:28:57.481Z,58.50
2017-09-18T14:31:25.889Z,58.50
2017-09-18T14:33:55.904Z,57.00
2017-09-18T14:36:24.108Z,56.60
2017-09-18T14:38:53.039Z,47.80
2017-09-18T14:41:21.240Z,48.30
2017-09-18T14:43:50.355Z,42.90
2017-09-18T14:46:20.154Z,40.80
2017-09-18T14:48:48.822Z,40.70
2017-09-18T14:51:17.009Z,41.90
2017-09-18T14:53:45.232Z,38.90
2017-09-18T14:56:14.126Z,34.40
2017-09-18T14:58:42.327Z,34.30
2017-09-18T15:01:12.110Z,30.00
2017-09-18T15:03:40.318Z,30.00
2017-09-18T15:06:08.488Z,34.70
2017-09-18T15:08:36.626Z,35.30
2017-09-18T15:11:05.975Z,36.30
2017-09-18T15:13:34.135Z,38.50
2017-09-18T15:16:02.318Z,40.50
2017-09-18T15:18:30.997Z,41.90
2017-09-18T15:20:59.755Z,42.70
2017-09-18T15:23:27.960Z,44.10
2017-09-18T15:25:56.970Z,45.00
2017-09-18T15:28:26.125Z,45.60
2017-09-18T15:30:54.867Z,46.60
2017-09-18T15:33:23.068Z,45.80
2017-09-18T15:35:52.008Z,42.30
2017-09-18T15:38:20.686Z,42.20
2017-09-18T15:40:48.845Z,40.50
2017-09-18T15:43:17.598Z,40.40
2017-09-18T15:45:46.543Z,36.20
2017-09-18T15:48:15.651Z,36.10
2017-09-18T15:50:43.828Z,34.20
2017-09-18T15:53:11.996Z,33.20
2017-09-18T15:55:40.198Z,32.40
2017-09-18T15:58:08.366Z,31.10
2017-09-18T16:00:36.530Z,33.30
2017-09-18T16:03:05.654Z,34.00
2017-09-18T16:05:34.571Z,35.50
2017-09-18T16:08:02.745Z,35.50
2017-09-18T16:10:30.912Z,37.20
2017-09-18T16:12:59.329Z,38.90
2017-09-18T16:15:27.510Z,41.20
2017-09-18T16:17:55.946Z,41.80
2017-09-18T16:20:24.859Z,44.30
2017-09-18T16:22:53.965Z,44.30
2017-09-18T16:25:22.152Z,45.30
2017-09-18T16:27:51.246Z,46.50
2017-09-18T16:30:19.422Z,47.60
2017-09-18T16:32:48.509Z,49.30
2017-09-18T16:35:16.681Z,50.20
2017-09-18T16:37:45.328Z,49.90
2017-09-18T16:40:14.251Z,49.80
2017-09-18T16:42:42.561Z,49.80
2017-09-18T16:45:10.700Z,49.50
2017-09-18T16:47:39.807Z,50.60
2017-09-18T16:50:07.988Z,49.80
2017-09-18T16:52:36.139Z,50.10
2017-09-18T16:55:04.328Z,49.70
2017-09-18T16:57:32.485Z,50.50
2017-09-18T17:00:00.650Z,51.00
2017-09-18T17:02:28.854Z,52.30
2017-09-18T17:04:57.012Z,54.00
2017-09-18T17:07:25.189Z,53.90
2017-09-18T17:09:53.361Z,53.00
2017-09-18T17:12:22.470Z,53.00
2017-09-18T17:14:51.384Z,55.20
2017-09-18T17:17:19.593Z,55.20
2017-09-18T17:19:47.866Z,55.30
2017-09-18T17:22:16.050Z,55.30
2017-09-18T17:24:44.235Z,55.90
2017-09-18T17:27:12.421Z,55.70
2017-09-18T17:29:40.567Z,55.80
2017-09-18T17:32:08.724Z,56.70
2017-09-18T17:34:38.474Z,56.60
2017-09-18T17:37:06.649Z,56.60
2017-09-18T17:39:34.842Z,57.10
2017-09-18T17:42:03.056Z,57.80
2017-09-18T17:44:32.577Z,58.80
2017-09-18T17:47:02.340Z,59.20
2017-09-18T17:49:30.505Z,59.20
2017-09-18T17:51:58.700Z,58.70
2017-09-18T17:54:26.896Z,60.10
2017-09-18T17:56:56.634Z,60.20
2017-09-18T17:59:24.784Z,60.10
2017-09-18T18:01:53.587Z,60.10
2017-09-18T18:04:21.742Z,60.40
2017-09-18T18:06:50.733Z,62.30
2017-09-18T18:09:19.649Z,62.90
2017-09-18T18:11:47.800Z,62.90
2017-09-18T18:14:16.746Z,64.40
2017-09-18T18:16:44.900Z,64.40
2017-09-18T18:19:13.067Z,64.10
2017-09-18T18:21:41.239Z,64.40
2017-09-18T18:24:09.415Z,64.60
2017-09-18T18:26:37.603Z,63.60
2017-09-18T18:29:05.776Z,63.20
2017-09-18T18:31:33.962Z,63.20
2017-09-18T18:34:02.114Z,63.50
2017-09-18T18:36:31.059Z,64.30
2017-09-18T18:39:00.018Z,64.00
2017-09-18T18:41:31.569Z,63.80
2017-09-18T18:44:01.344Z,63.90
2017-09-18T18:46:31.229Z,63.60
2017-09-18T18:48:59.397Z,63.60
2017-09-18T18:51:27.570Z,64.00
2017-09-18T18:53:55.760Z,65.00
2017-09-18T18:56:23.916Z,65.70
2017-09-18T18:58:52.166Z,65.50
2017-09-18T19:01:21.095Z,64.60
2017-09-18T19:03:49.623Z,64.50
2017-09-18T19:06:17.924Z,64.80
2017-09-18T19:08:46.127Z,65.90
2017-09-18T19:11:15.218Z,66.00
2017-09-18T19:13:44.181Z,66.20
2017-09-18T19:16:12.372Z,66.10
2017-09-18T19:18:40.564Z,66.50
2017-09-18T19:21:10.461Z,66.30
2017-09-18T19:23:39.381Z,66.10
2017-09-18T19:26:09.251Z,65.70
2017-09-18T19:28:37.414Z,65.70
2017-09-18T19:31:05.586Z,65.10
2017-09-18T19:33:33.736Z,65.20
2017-09-18T19:36:01.878Z,65.30
2017-09-18T19:38:30.859Z,65.70
2017-09-18T19:40:59.006Z,65.70
2017-09-18T19:43:27.206Z,66.00
2017-09-18T19:45:55.369Z,66.30
2017-09-18T19:48:23.893Z,66.80
2017-09-18T19:50:57.241Z,67.70
2017-09-18T19:53:27.249Z,67.20
2017-09-18T19:55:55.395Z,67.30
2017-09-18T19:58:23.584Z,67.10
2017-09-18T20:00:51.750Z,67.70
2017-09-18T20:03:19.934Z,67.60
2017-09-18T20:05:48.157Z,67.80
2017-09-18T20:08:16.311Z,68.10
2017-09-18T20:10:44.479Z,67.90
2017-09-18T20:13:12.658Z,68.60
2017-09-18T20:15:41.760Z,69.40
2017-09-18T20:18:09.948Z,68.70
2017-09-18T20:20:38.157Z,68.80
2017-09-18T20:23:06.360Z,69.10
2017-09-18T20:25:34.500Z,68.00
2017-09-18T20:28:04.682Z,68.00
2017-09-18T20:30:33.803Z,68.00
2017-09-18T20:33:01.997Z,67.90
2017-09-18T20:35:31.186Z,68.20
2017-09-18T20:37:59.341Z,68.00
2017-09-18T20:40:28.286Z,67.80
2017-09-18T20:42:56.482Z,67.70
2017-09-18T20:45:25.586Z,67.60
2017-09-18T20:47:53.742Z,67.60
2017-09-18T20:50:22.326Z,67.50
2017-09-18T20:52:50.478Z,67.70
2017-09-18T20:55:19.582Z,67.60
2017-09-18T20:57:48.518Z,67.20
2017-09-18T21:00:18.276Z,66.90
2017-09-18T21:02:46.433Z,66.90
2017-09-18T21:05:14.609Z,66.90
2017-09-18T21:07:42.782Z,67.20
2017-09-18T21:10:10.941Z,67.40
2017-09-18T21:12:39.119Z,67.30
2017-09-18T21:15:07.273Z,67.20
2017-09-18T21:17:36.235Z,67.00
2017-09-18T21:20:04.398Z,67.00
2017-09-18T21:22:32.557Z,67.30
2017-09-18T21:25:00.709Z,67.30
2017-09-18T21:27:28.899Z,67.70
2017-09-18T21:29:57.831Z,67.50
2017-09-18T21:32:25.987Z,67.40
2017-09-18T21:34:54.215Z,67.80
2017-09-18T21:37:22.373Z,67.30
2017-09-18T21:39:52.270Z,67.90
2017-09-18T21:42:20.441Z,67.90
2017-09-18T21:44:48.630Z,67.80
2017-09-18T21:47:17.569Z,68.20
2017-09-18T21:49:45.728Z,68.20
2017-09-18T21:52:13.886Z,68.40
2017-09-18T21:54:42.053Z,68.10
2017-09-18T21:57:10.981Z,68.70
2017-09-18T21:59:39.138Z,68.00
2017-09-18T22:02:07.309Z,67.90
2017-09-18T22:04:36.460Z,68.00
2017-09-18T22:07:04.617Z,67.80
2017-09-18T22:09:34.558Z,67.80
2017-09-18T22:12:03.474Z,67.60
2017-09-18T22:14:31.654Z,67.50
2017-09-18T22:17:00.750Z,67.50
2017-09-18T22:19:28.922Z,67.60
2017-09-18T22:21:57.106Z,67.40
2017-09-18T22:24:26.264Z,67.40
2017-09-18T22:26:55.208Z,67.80
2017-09-18T22:29:23.386Z,67.70
2017-09-18T22:31:51.565Z,67.80
2017-09-18T22:34:19.778Z,67.80
2017-09-18T22:36:48.724Z,68.60
2017-09-18T22:39:16.885Z,68.40
2017-09-18T22:41:45.055Z,68.20
2017-09-18T22:44:13.257Z,68.10
2017-09-18T22:46:41.442Z,68.00
2017-09-18T22:49:10.651Z,68.00
2017-09-18T22:51:38.807Z,68.10
2017-09-18T22:54:07.006Z,68.00
2017-09-18T22:56:35.145Z,68.00
2017-09-18T22:59:03.356Z,68.30
2017-09-18T23:01:32.362Z,68.40
2017-09-18T23:04:01.279Z,68.50
2017-09-18T23:06:29.478Z,68.50
2017-09-18T23:09:00.140Z,68.80
2017-09-18T23:11:28.252Z,69.00
2017-09-18T23:13:57.234Z,69.30
2017-09-18T23:16:25.393Z,69.20
2017-09-18T23:18:55.912Z,70.00
2017-09-18T23:21:24.115Z,69.90
2017-09-18T23:23:53.047Z,70.60
2017-09-18T23:26:21.982Z,70.50
2017-09-18T23:28:50.925Z,70.40
2017-09-18T23:31:19.121Z,70.40
2017-09-18T23:33:47.346Z,70.20
2017-09-18T23:36:16.299Z,70.00
2017-09-18T23:38:45.388Z,70.10
2017-09-18T23:41:13.573Z,70.00
2017-09-18T23:43:41.800Z,70.10
2017-09-18T23:46:09.951Z,70.20
2017-09-18T23:48:38.094Z,70.00
2017-09-18T23:51:06.251Z,69.90
2017-09-18T23:53:34.431Z,70.20
2017-09-18T23:56:02.600Z,70.00
2017-09-18T23:58:30.754Z,70.00
